createdAt,value
2022-09-17T00:12:06.642Z,978.6
2022-09-17T00:26:36.189Z,978.7
2022-09-17T00:41:05.785Z,978.8
2022-09-17T00:55:36.504Z,978.7
2022-09-17T01:10:05.990Z,978.7
2022-09-17T01:24:42.702Z,978.8
2022-09-17T01:39:14.686Z,978.8
2022-09-17T01:53:44.508Z,978.8
2022-09-17T02:08:16.596Z,978.8
2022-09-17T02:22:42.715Z,978.9
2022-09-17T02:37:12.244Z,979
2022-09-17T02:51:42.702Z,979
2022-09-17T03:06:08.371Z,979
2022-09-17T03:20:44.302Z,979
2022-09-17T03:35:16.641Z,979
2022-09-17T03:49:43.869Z,979.1
2022-09-17T04:04:19.697Z,979.1
2022-09-17T04:18:52.962Z,979.3
2022-09-17T04:33:19.022Z,979.2
2022-09-17T04:47:50.060Z,979.3
2022-09-17T05:02:25.915Z,979.4
2022-09-17T05:16:57.919Z,979.5
2022-09-17T05:31:29.815Z,979.5
2022-09-17T05:45:53.483Z,979.7
2022-09-17T06:00:24.082Z,979.9
2022-09-17T06:14:55.229Z,979.9
2022-09-17T06:29:24.297Z,980.1
2022-09-17T06:43:53.828Z,980.2
2022-09-17T06:58:24.213Z,980.2
2022-09-17T07:12:54.145Z,980.3
2022-09-17T07:27:25.395Z,980.3
2022-09-17T07:41:58.175Z,980.4
2022-09-17T07:56:33.653Z,980.4
2022-09-17T08:11:06.121Z,980.4
2022-09-17T08:25:36.791Z,980.3
2022-09-17T08:40:10.143Z,980.3
2022-09-17T08:54:39.623Z,980.5
2022-09-17T09:09:17.325Z,980.4
2022-09-17T09:23:47.955Z,980.4
2022-09-17T09:38:15.053Z,980.4
2022-09-17T09:52:43.167Z,980.3
2022-09-17T10:07:12.057Z,980.4
2022-09-17T10:21:44.126Z,980.2
2022-09-17T10:36:14.855Z,980.3
2022-09-17T10:50:46.485Z,980.2
2022-09-17T11:05:15.130Z,980
2022-09-17T11:19:44.386Z,980.1
2022-09-17T11:34:15.141Z,979.9
2022-09-17T11:48:43.893Z,980.2
2022-09-17T12:03:14.743Z,980.2
2022-09-17T12:17:43.311Z,980.4
2022-09-17T12:32:12.243Z,980.5
2022-09-17T12:46:39.091Z,980.3
2022-09-17T13:01:08.302Z,980.4
2022-09-17T13:15:38.447Z,980.3
2022-09-17T13:30:08.604Z,980.2
2022-09-17T13:44:39.195Z,980
2022-09-17T13:59:10.797Z,979.9
2022-09-17T14:13:41.105Z,979.9
2022-09-17T14:28:11.821Z,979.9
2022-09-17T14:42:40.081Z,980
2022-09-17T14:57:07.327Z,980.6
2022-09-17T15:11:34.472Z,980.3
2022-09-17T15:26:06.351Z,980.2
2022-09-17T15:40:35.797Z,980.2
2022-09-17T15:54:57.901Z,980.2
2022-09-17T16:09:28.175Z,980.2
2022-09-17T16:23:57.368Z,980.3
2022-09-17T16:38:25.775Z,980.3
2022-09-17T16:53:02.856Z,980.5
2022-09-17T17:07:28.746Z,980.5
2022-09-17T17:21:57.028Z,980.5
2022-09-17T17:36:26.437Z,980.6
2022-09-17T17:50:57.494Z,980.8
2022-09-17T18:05:25.108Z,980.9
2022-09-17T18:19:55.668Z,981
2022-09-17T18:34:24.144Z,981.2
2022-09-17T18:48:53.809Z,981.3
2022-09-17T19:03:22.880Z,981.2
2022-09-17T19:17:53.682Z,981.3
2022-09-17T19:32:22.124Z,981.4
2022-09-17T19:47:06.992Z,981.4
2022-09-17T20:01:29.600Z,981.5
2022-09-17T20:15:59.878Z,981.5
2022-09-17T20:30:29.938Z,981.5
2022-09-17T20:45:01.238Z,981.6
2022-09-17T20:59:29.129Z,981.6
2022-09-17T21:13:59.924Z,981.6
2022-09-17T21:28:28.211Z,981.6
2022-09-17T21:42:57.950Z,981.6
2022-09-17T21:57:26.686Z,981.6
2022-09-17T22:11:58.595Z,981.5
2022-09-17T22:26:27.954Z,981.6
2022-09-17T22:40:58.143Z,981.6
2022-09-17T22:55:28.418Z,981.6
2022-09-17T23:09:59.357Z,981.6
2022-09-17T23:24:29.533Z,981.6
2022-09-17T23:39:00.751Z,981.8
2022-09-17T23:53:30.166Z,981.7
